Time,TemperatureF,DewpointF,PressureIn,WindDirection,WindDirectionDegrees,WindSpeedMPH,WindSpeedGustMPH,Humidity,HourlyPrecipIn,Conditions,Clouds,dailyrainin,SolarRadiationWatts/m^2,SoftwareType,DateUTC
2013-01-22 00:02:00,47.0,37.0,-100.00,North,349,3.0,9.0,69,0.00,,,0.00,0.000000,,2013-01-22 06:02:00,
2013-01-22 00:12:00,47.0,37.0,-100.00,North,349,3.0,9.0,69,0.00,,,0.00,0.000000,,2013-01-22 06:12:00,
2013-01-22 00:33:00,45.0,37.0,-100.00,North,352,3.0,7.0,73,0.00,,,0.00,0.000000,,2013-01-22 06:33:00,
2013-01-22 00:43:00,45.0,37.0,-100.00,North,352,3.0,7.0,73,0.00,,,0.00,0.000000,,2013-01-22 06:43:00,
2013-01-22 00:53:00,45.0,37.0,-100.00,North,352,3.0,7.0,73,0.00,,,0.00,0.000000,,2013-01-22 06:53:00,
2013-01-22 01:02:00,45.0,37.0,-100.00,North,352,3.0,7.0,73,0.00,,,0.00,0.000000,,2013-01-22 07:02:00,
2013-01-22 01:12:00,45.0,37.0,-100.00,North,352,3.0,7.0,73,0.00,,,0.00,0.000000,,2013-01-22 07:12:00,
2013-01-22 01:33:00,42.0,35.0,-100.00,North,352,2.0,6.0,77,0.00,,,0.00,0.000000,,2013-01-22 07:33:00,
2013-01-22 01:43:00,42.0,35.0,-100.00,North,352,2.0,6.0,77,0.00,,,0.00,0.000000,,2013-01-22 07:43:00,
2013-01-22 01:53:00,42.0,35.0,-100.00,North,352,2.0,6.0,77,0.00,,,0.00,0.000000,,2013-01-22 07:53:00,
2013-01-22 02:02:00,42.0,35.0,-100.00,North,352,2.0,6.0,77,0.00,,,0.00,0.000000,,2013-01-22 08:02:00,
2013-01-22 02:12:00,42.0,35.0,-100.00,North,352,2.0,6.0,77,0.00,,,0.00,0.000000,,2013-01-22 08:12:00,
2013-01-22 02:43:00,41.0,35.0,-100.00,North,357,3.0,8.0,78,0.00,,,0.00,0.000000,,2013-01-22 08:43:00,
2013-01-22 02:53:00,41.0,35.0,-100.00,North,357,3.0,8.0,78,0.00,,,0.00,0.000000,,2013-01-22 08:53:00,
2013-01-22 03:02:00,41.0,35.0,-100.00,North,357,3.0,8.0,78,0.00,,,0.00,0.000000,,2013-01-22 09:02:00,
2013-01-22 03:12:00,41.0,35.0,-100.00,North,357,3.0,8.0,78,0.00,,,0.00,0.000000,,2013-01-22 09:12:00,
2013-01-22 03:33:00,40.0,33.0,-100.00,North,1,4.0,7.0,75,0.00,,,0.00,0.000000,,2013-01-22 09:33:00,
2013-01-22 03:43:00,40.0,33.0,-100.00,North,1,4.0,7.0,75,0.00,,,0.00,0.000000,,2013-01-22 09:43:00,
2013-01-22 03:52:00,40.0,33.0,-100.00,North,1,4.0,7.0,75,0.00,,,0.00,0.000000,,2013-01-22 09:52:00,
2013-01-22 04:02:00,40.0,33.0,-100.00,North,1,4.0,7.0,75,0.00,,,0.00,0.000000,,2013-01-22 10:02:00,
2013-01-22 04:12:00,40.0,33.0,-100.00,North,1,4.0,7.0,75,0.00,,,0.00,0.000000,,2013-01-22 10:12:00,
2013-01-22 04:43:00,39.0,32.0,-100.00,North,349,3.0,8.0,75,0.00,,,0.00,0.000000,,2013-01-22 10:43:00,
2013-01-22 04:52:00,39.0,32.0,-100.00,North,349,3.0,8.0,75,0.00,,,0.00,0.000000,,2013-01-22 10:52:00,
2013-01-22 05:02:00,39.0,32.0,-100.00,North,349,3.0,8.0,75,0.00,,,0.00,0.000000,,2013-01-22 11:02:00,
2013-01-22 05:12:00,39.0,32.0,-100.00,North,349,3.0,8.0,75,0.00,,,0.00,0.000000,,2013-01-22 11:12:00,
2013-01-22 05:33:00,38.0,30.0,-100.00,NNW,345,3.0,7.0,74,0.00,,,0.00,0.000000,,2013-01-22 11:33:00,
2013-01-22 05:43:00,38.0,30.0,-100.00,NNW,345,3.0,7.0,74,0.00,,,0.00,0.000000,,2013-01-22 11:43:00,
2013-01-22 05:53:00,38.0,30.0,-100.00,NNW,345,3.0,7.0,74,0.00,,,0.00,0.000000,,2013-01-22 11:53:00,
2013-01-22 06:03:00,38.0,30.0,-100.00,NNW,345,3.0,7.0,74,0.00,,,0.00,0.000000,,2013-01-22 12:03:00,
2013-01-22 06:12:00,38.0,30.0,-100.00,NNW,345,3.0,7.0,74,0.00,,,0.00,0.000000,,2013-01-22 12:12:00,
2013-01-22 06:43:00,36.0,29.0,-100.00,North,358,4.0,8.0,74,0.00,,,0.00,0.000000,,2013-01-22 12:43:00,
2013-01-22 06:53:00,36.0,29.0,-100.00,North,358,4.0,8.0,74,0.00,,,0.00,0.000000,,2013-01-22 12:53:00,
2013-01-22 07:04:00,36.0,29.0,-100.00,North,358,4.0,8.0,74,0.00,,,0.00,0.000000,,2013-01-22 13:04:00,
2013-01-22 07:13:00,36.0,29.0,-100.00,North,358,4.0,8.0,74,0.00,,,0.00,0.000000,,2013-01-22 13:13:00,
2013-01-22 07:34:00,36.0,28.0,-100.00,North,357,4.0,7.0,72,0.00,,,0.00,5.000000,,2013-01-22 13:34:00,
2013-01-22 07:43:00,36.0,28.0,-100.00,North,357,4.0,7.0,72,0.00,,,0.00,5.000000,,2013-01-22 13:43:00,
2013-01-22 07:53:00,36.0,28.0,-100.00,North,357,4.0,7.0,72,0.00,,,0.00,5.000000,,2013-01-22 13:53:00,
2013-01-22 08:03:00,36.0,28.0,-100.00,North,357,4.0,7.0,72,0.00,,,0.00,5.000000,,2013-01-22 14:03:00,
2013-01-22 08:13:00,36.0,28.0,-100.00,North,357,4.0,7.0,72,0.00,,,0.00,5.000000,,2013-01-22 14:13:00,
2013-01-22 08:44:00,39.0,26.0,-100.00,North,359,5.0,11.0,60,0.00,,,0.00,55.000000,,2013-01-22 14:44:00,
2013-01-22 08:54:00,39.0,26.0,-100.00,North,359,5.0,11.0,60,0.00,,,0.00,55.000000,,2013-01-22 14:54:00,
2013-01-22 09:03:00,39.0,26.0,-100.00,North,359,5.0,11.0,60,0.00,,,0.00,55.000000,,2013-01-22 15:03:00,
2013-01-22 09:13:00,39.0,26.0,-100.00,North,359,5.0,11.0,60,0.00,,,0.00,55.000000,,2013-01-22 15:13:00,
2013-01-22 09:44:00,45.0,25.0,-100.00,NNE,14,4.0,13.0,46,0.00,,,0.00,151.000000,,2013-01-22 15:44:00,
2013-01-22 09:53:00,45.0,25.0,-100.00,NNE,14,4.0,13.0,46,0.00,,,0.00,151.000000,,2013-01-22 15:53:00,
2013-01-22 10:03:00,45.0,25.0,-100.00,NNE,14,4.0,13.0,46,0.00,,,0.00,151.000000,,2013-01-22 16:03:00,
2013-01-22 10:13:00,45.0,25.0,-100.00,NNE,14,4.0,13.0,46,0.00,,,0.00,151.000000,,2013-01-22 16:13:00,
2013-01-22 10:43:00,51.0,24.0,-100.00,North,353,4.0,12.0,35,0.00,,,0.00,429.000000,,2013-01-22 16:43:00,
2013-01-22 10:54:00,51.0,24.0,-100.00,North,353,4.0,12.0,35,0.00,,,0.00,429.000000,,2013-01-22 16:54:00,
2013-01-22 11:03:00,51.0,24.0,-100.00,North,353,4.0,12.0,35,0.00,,,0.00,429.000000,,2013-01-22 17:03:00,
2013-01-22 11:13:00,51.0,24.0,-100.00,North,353,4.0,12.0,35,0.00,,,0.00,429.000000,,2013-01-22 17:13:00,
2013-01-22 11:44:00,56.0,24.0,-100.00,NNE,17,4.0,11.0,29,0.00,,,0.00,582.000000,,2013-01-22 17:44:00,
2013-01-22 11:54:00,56.0,24.0,-100.00,NNE,17,4.0,11.0,29,0.00,,,0.00,582.000000,,2013-01-22 17:54:00,
2013-01-22 12:03:00,56.0,24.0,-100.00,NNE,17,4.0,11.0,29,0.00,,,0.00,582.000000,,2013-01-22 18:03:00,
2013-01-22 12:13:00,56.0,24.0,-100.00,NNE,17,4.0,11.0,29,0.00,,,0.00,582.000000,,2013-01-22 18:13:00,
2013-01-22 12:34:00,57.0,24.0,-100.00,North,0,4.0,11.0,28,0.00,,,0.00,560.000000,,2013-01-22 18:34:00,
2013-01-22 12:44:00,57.0,24.0,-100.00,North,0,4.0,11.0,28,0.00,,,0.00,560.000000,,2013-01-22 18:44:00,
2013-01-22 12:54:00,57.0,24.0,-100.00,North,0,4.0,11.0,28,0.00,,,0.00,560.000000,,2013-01-22 18:54:00,
2013-01-22 13:03:00,57.0,24.0,-100.00,North,0,4.0,11.0,28,0.00,,,0.00,560.000000,,2013-01-22 19:03:00,
2013-01-22 13:13:00,57.0,24.0,-100.00,North,0,4.0,11.0,28,0.00,,,0.00,560.000000,,2013-01-22 19:13:00,
2013-01-22 13:44:00,59.0,24.0,-100.00,North,353,5.0,9.0,26,0.00,,,0.00,526.000000,,2013-01-22 19:44:00,
2013-01-22 13:54:00,59.0,24.0,-100.00,North,353,5.0,9.0,26,0.00,,,0.00,526.000000,,2013-01-22 19:54:00,
2013-01-22 14:03:00,59.0,24.0,-100.00,North,353,5.0,9.0,26,0.00,,,0.00,526.000000,,2013-01-22 20:03:00,
2013-01-22 14:13:00,59.0,24.0,-100.00,North,353,5.0,9.0,26,0.00,,,0.00,526.000000,,2013-01-22 20:13:00,
2013-01-22 14:43:00,59.0,25.0,-100.00,NNE,13,4.0,13.0,27,0.00,,,0.00,510.000000,,2013-01-22 20:43:00,
2013-01-22 14:53:00,59.0,25.0,-100.00,NNE,13,4.0,13.0,27,0.00,,,0.00,510.000000,,2013-01-22 20:53:00,
2013-01-22 15:03:00,59.0,25.0,-100.00,NNE,13,4.0,13.0,27,0.00,,,0.00,510.000000,,2013-01-22 21:03:00,
2013-01-22 15:13:00,59.0,25.0,-100.00,NNE,13,4.0,13.0,27,0.00,,,0.00,510.000000,,2013-01-22 21:13:00,
2013-01-22 15:43:00,58.0,27.0,-100.00,NNE,25,3.0,9.0,30,0.00,,,0.00,324.000000,,2013-01-22 21:43:00,
2013-01-22 15:53:00,58.0,27.0,-100.00,NNE,25,3.0,9.0,30,0.00,,,0.00,324.000000,,2013-01-22 21:53:00,
2013-01-22 16:03:00,58.0,27.0,-100.00,NNE,25,3.0,9.0,30,0.00,,,0.00,324.000000,,2013-01-22 22:03:00,
2013-01-22 16:12:00,58.0,27.0,-100.00,NNE,25,3.0,9.0,30,0.00,,,0.00,324.000000,,2013-01-22 22:12:00,
2013-01-22 16:43:00,55.0,31.0,-100.00,North,356,2.0,8.0,39,0.00,,,0.00,53.000000,,2013-01-22 22:43:00,
2013-01-22 16:53:00,55.0,31.0,-100.00,North,356,2.0,8.0,39,0.00,,,0.00,53.000000,,2013-01-22 22:53:00,
2013-01-22 17:03:00,55.0,31.0,-100.00,North,356,2.0,8.0,39,0.00,,,0.00,53.000000,,2013-01-22 23:03:00,
2013-01-22 17:12:00,55.0,31.0,-100.00,North,356,2.0,8.0,39,0.00,,,0.00,53.000000,,2013-01-22 23:12:00,
2013-01-22 17:43:00,49.0,33.0,-100.00,NNW,331,2.0,2.0,53,0.00,,,0.00,17.000000,,2013-01-22 23:43:00,
2013-01-22 17:53:00,49.0,33.0,-100.00,NNW,331,2.0,2.0,53,0.00,,,0.00,17.000000,,2013-01-22 23:53:00,
2013-01-22 18:03:00,49.0,33.0,-100.00,NNW,331,2.0,2.0,53,0.00,,,0.00,17.000000,,2013-01-23 00:03:00,
2013-01-22 18:12:00,49.0,33.0,-100.00,NNW,331,2.0,2.0,53,0.00,,,0.00,17.000000,,2013-01-23 00:12:00,
2013-01-22 18:43:00,45.0,32.0,-100.00,NNW,342,2.0,3.0,59,0.00,,,0.00,0.000000,,2013-01-23 00:43:00,
2013-01-22 18:52:00,45.0,32.0,-100.00,NNW,342,2.0,3.0,59,0.00,,,0.00,0.000000,,2013-01-23 00:52:00,
2013-01-22 19:03:00,45.0,32.0,-100.00,NNW,342,2.0,3.0,59,0.00,,,0.00,0.000000,,2013-01-23 01:03:00,
2013-01-22 19:13:00,45.0,32.0,-100.00,NNW,342,2.0,3.0,59,0.00,,,0.00,0.000000,,2013-01-23 01:13:00,
2013-01-22 19:43:00,43.0,32.0,-100.00,NNW,337,3.0,4.0,66,0.00,,,0.00,0.000000,,2013-01-23 01:43:00,
2013-01-22 19:53:00,43.0,32.0,-100.00,NNW,337,3.0,4.0,66,0.00,,,0.00,0.000000,,2013-01-23 01:53:00,
2013-01-22 20:03:00,43.0,32.0,-100.00,NNW,337,3.0,4.0,66,0.00,,,0.00,0.000000,,2013-01-23 02:03:00,
2013-01-22 20:12:00,43.0,32.0,-100.00,NNW,337,3.0,4.0,66,0.00,,,0.00,0.000000,,2013-01-23 02:12:00,
2013-01-22 20:43:00,42.0,34.0,-100.00,NNW,344,3.0,5.0,73,0.00,,,0.00,0.000000,,2013-01-23 02:43:00,
2013-01-22 20:53:00,42.0,34.0,-100.00,NNW,344,3.0,5.0,73,0.00,,,0.00,0.000000,,2013-01-23 02:53:00,
2013-01-22 21:03:00,42.0,34.0,-100.00,NNW,344,3.0,5.0,73,0.00,,,0.00,0.000000,,2013-01-23 03:03:00,
2013-01-22 21:13:00,42.0,34.0,-100.00,NNW,344,3.0,5.0,73,0.00,,,0.00,0.000000,,2013-01-23 03:13:00,
2013-01-22 21:33:00,41.0,33.0,-100.00,NNW,348,2.0,5.0,72,0.00,,,0.00,0.000000,,2013-01-23 03:33:00,
2013-01-22 21:43:00,41.0,33.0,-100.00,NNW,348,2.0,5.0,72,0.00,,,0.00,0.000000,,2013-01-23 03:43:00,
2013-01-22 21:53:00,41.0,33.0,-100.00,NNW,348,2.0,5.0,72,0.00,,,0.00,0.000000,,2013-01-23 03:53:00,
2013-01-22 22:03:00,41.0,33.0,-100.00,NNW,348,2.0,5.0,72,0.00,,,0.00,0.000000,,2013-01-23 04:03:00,
2013-01-22 22:12:00,41.0,33.0,-100.00,NNW,348,2.0,5.0,72,0.00,,,0.00,0.000000,,2013-01-23 04:12:00,
2013-01-22 22:33:00,39.0,32.0,-100.00,NNW,347,2.0,4.0,75,0.00,,,0.00,0.000000,,2013-01-23 04:33:00,
2013-01-22 22:43:00,39.0,32.0,-100.00,NNW,347,2.0,4.0,75,0.00,,,0.00,0.000000,,2013-01-23 04:43:00,
2013-01-22 22:53:00,39.0,32.0,-100.00,NNW,347,2.0,4.0,75,0.00,,,0.00,0.000000,,2013-01-23 04:53:00,
2013-01-22 23:03:00,39.0,32.0,-100.00,NNW,347,2.0,4.0,75,0.00,,,0.00,0.000000,,2013-01-23 05:03:00,
2013-01-22 23:12:00,39.0,32.0,-100.00,NNW,347,2.0,4.0,75,0.00,,,0.00,0.000000,,2013-01-23 05:12:00,
2013-01-22 23:33:00,38.0,30.0,-100.00,NNW,341,0.0,3.0,73,0.00,,,0.00,0.000000,,2013-01-23 05:33:00,
2013-01-22 23:43:00,38.0,30.0,-100.00,NNW,341,0.0,3.0,73,0.00,,,0.00,0.000000,,2013-01-23 05:43:00,
2013-01-22 23:53:00,38.0,30.0,-100.00,NNW,341,0.0,3.0,73,0.00,,,0.00,0.000000,,2013-01-23 05:53:00,